createdAt,value
2022-11-15T00:02:14.395Z,4.60
2022-11-15T00:04:44.706Z,4.55
2022-11-15T00:07:33.240Z,4.39
2022-11-15T00:10:04.870Z,4.55
2022-11-15T00:12:33.590Z,4.69
2022-11-15T00:15:03.276Z,4.40
2022-11-15T00:17:32.070Z,4.69
2022-11-15T00:20:01.639Z,4.69
2022-11-15T00:22:35.127Z,4.72
2022-11-15T00:25:05.297Z,4.71
2022-11-15T00:27:34.846Z,4.58
2022-11-15T00:30:03.875Z,4.62
2022-11-15T00:32:34.127Z,4.56
2022-11-15T00:35:02.794Z,4.53
2022-11-15T00:37:31.440Z,4.55
2022-11-15T00:40:00.937Z,4.56
2022-11-15T00:42:29.593Z,4.54
2022-11-15T00:44:59.058Z,4.40
2022-11-15T00:47:28.533Z,4.50
2022-11-15T00:49:58.967Z,4.27
2022-11-15T00:52:28.377Z,4.56
2022-11-15T00:54:57.781Z,4.28
2022-11-15T00:57:27.236Z,4.46
2022-11-15T00:59:56.676Z,4.31
2022-11-15T01:02:25.346Z,4.67
2022-11-15T01:04:54.010Z,4.53
2022-11-15T01:07:23.544Z,4.53
2022-11-15T01:09:53.133Z,4.48
2022-11-15T01:12:22.687Z,4.62
2022-11-15T01:14:52.167Z,4.55
2022-11-15T01:17:21.662Z,4.52
2022-11-15T01:19:51.371Z,4.52
2022-11-15T01:22:20.961Z,4.48
2022-11-15T01:24:51.991Z,4.50
2022-11-15T01:27:19.829Z,4.64
2022-11-15T01:29:49.427Z,4.62
2022-11-15T01:32:19.282Z,4.61
2022-11-15T01:34:48.667Z,4.61
2022-11-15T01:37:18.103Z,4.62
2022-11-15T01:39:45.839Z,4.65
2022-11-15T01:42:15.799Z,4.65
2022-11-15T01:44:50.665Z,4.53
2022-11-15T01:47:42.032Z,4.82
2022-11-15T01:50:24.085Z,4.48
2022-11-15T01:52:53.732Z,4.34
2022-11-15T01:55:27.626Z,4.46
2022-11-15T01:58:03.610Z,4.38
2022-11-15T02:00:33.703Z,4.46
2022-11-15T02:03:03.845Z,4.56
2022-11-15T02:05:34.123Z,4.64
2022-11-15T02:08:03.999Z,4.49
2022-11-15T02:10:33.488Z,4.55
2022-11-15T02:13:03.761Z,4.72
2022-11-15T02:16:07.589Z,4.56
2022-11-15T02:18:46.187Z,4.71
2022-11-15T02:21:53.098Z,4.79
2022-11-15T02:25:01.239Z,4.62
2022-11-15T02:28:26.035Z,4.80
2022-11-15T02:31:41.322Z,4.73
2022-11-15T02:34:30.466Z,4.64
2022-11-15T02:37:12.418Z,4.85
2022-11-15T02:40:45.503Z,4.88
2022-11-15T02:43:53.361Z,4.77
2022-11-15T02:46:57.999Z,4.71
2022-11-15T02:49:32.951Z,4.84
2022-11-15T02:52:02.581Z,4.92
2022-11-15T02:54:35.080Z,4.81
2022-11-15T02:57:13.728Z,4.77
2022-11-15T03:00:10.437Z,4.69
2022-11-15T03:03:24.017Z,4.85
2022-11-15T03:06:46.899Z,4.71
2022-11-15T03:10:19.518Z,4.77
2022-11-15T03:13:34.082Z,4.58
2022-11-15T03:16:40.880Z,4.82
2022-11-15T03:19:28.524Z,4.75
2022-11-15T03:22:01.986Z,4.82
2022-11-15T03:24:37.000Z,4.85
2022-11-15T03:27:11.567Z,4.99
2022-11-15T03:29:49.648Z,4.96
2022-11-15T03:32:31.812Z,4.82
2022-11-15T03:35:21.328Z,4.76
2022-11-15T03:38:15.202Z,4.86
2022-11-15T03:40:54.865Z,4.84
2022-11-15T03:43:48.622Z,4.60
2022-11-15T03:46:43.975Z,4.63
2022-11-15T03:49:37.687Z,4.71
2022-11-15T03:52:07.719Z,4.78
2022-11-15T03:54:37.206Z,4.69
2022-11-15T03:57:06.623Z,4.74
2022-11-15T03:59:36.101Z,4.64
2022-11-15T04:02:05.554Z,4.69
2022-11-15T04:04:34.194Z,4.73
2022-11-15T04:07:03.820Z,4.50
2022-11-15T04:09:33.377Z,4.64
2022-11-15T04:12:03.036Z,4.62
2022-11-15T04:14:32.476Z,4.74
2022-11-15T04:17:01.989Z,4.78
2022-11-15T04:19:50.078Z,4.85
2022-11-15T04:22:37.926Z,4.84
2022-11-15T04:25:07.832Z,4.83
2022-11-15T04:27:37.329Z,4.75
2022-11-15T04:30:08.385Z,4.90
2022-11-15T04:32:37.835Z,4.74
2022-11-15T04:35:08.237Z,4.54
2022-11-15T04:37:37.672Z,4.61
2022-11-15T04:40:07.607Z,4.56
2022-11-15T04:42:37.007Z,4.59
2022-11-15T04:45:06.019Z,4.64
2022-11-15T04:47:35.658Z,4.71
2022-11-15T04:50:06.310Z,4.79
2022-11-15T04:52:35.823Z,4.68
2022-11-15T04:55:08.127Z,4.71
2022-11-15T04:57:37.865Z,4.77
2022-11-15T05:00:13.475Z,4.84
2022-11-15T05:03:01.659Z,4.75
2022-11-15T05:05:31.078Z,4.75
2022-11-15T05:08:00.516Z,4.69
2022-11-15T05:10:29.999Z,4.37
2022-11-15T05:12:59.511Z,4.57
2022-11-15T05:15:28.966Z,4.59
2022-11-15T05:18:01.595Z,4.50
2022-11-15T05:20:31.028Z,4.48
2022-11-15T05:23:00.555Z,4.64
2022-11-15T05:25:29.645Z,4.77
2022-11-15T05:27:59.158Z,4.86
2022-11-15T05:30:28.620Z,4.93
2022-11-15T05:32:58.151Z,4.70
2022-11-15T05:35:42.932Z,4.73
2022-11-15T05:38:12.369Z,4.86
2022-11-15T05:40:41.960Z,4.62
2022-11-15T05:43:12.955Z,4.80
2022-11-15T05:45:42.438Z,4.61
2022-11-15T05:48:12.452Z,4.89
2022-11-15T05:50:47.840Z,4.55
2022-11-15T05:53:21.342Z,4.58
2022-11-15T05:55:51.296Z,4.61
2022-11-15T05:58:22.373Z,4.82
2022-11-15T06:00:51.933Z,5.00
2022-11-15T06:03:21.493Z,4.78
2022-11-15T06:05:51.075Z,4.84
2022-11-15T06:08:20.528Z,4.93
2022-11-15T06:10:50.240Z,4.95
2022-11-15T06:13:19.696Z,5.02
2022-11-15T06:15:49.120Z,4.85
2022-11-15T06:18:18.579Z,4.91
2022-11-15T06:20:48.008Z,4.92
2022-11-15T06:23:17.589Z,4.89
2022-11-15T06:25:47.005Z,4.95
2022-11-15T06:28:16.466Z,5.16
2022-11-15T06:30:49.187Z,5.09
2022-11-15T06:33:22.506Z,5.28
2022-11-15T06:35:51.975Z,5.18
2022-11-15T06:38:21.500Z,5.14
2022-11-15T06:40:50.941Z,5.23
2022-11-15T06:43:20.395Z,5.33
2022-11-15T06:45:49.880Z,5.27
2022-11-15T06:48:19.341Z,5.11
2022-11-15T06:50:57.323Z,4.96
2022-11-15T06:53:28.909Z,5.23
2022-11-15T06:56:05.078Z,5.07
2022-11-15T06:58:34.963Z,5.25
2022-11-15T07:01:12.195Z,5.28
2022-11-15T07:03:43.628Z,5.00
2022-11-15T07:06:12.504Z,5.04
2022-11-15T07:08:42.885Z,5.24
2022-11-15T07:11:12.383Z,5.27
2022-11-15T07:13:41.849Z,5.04
2022-11-15T07:16:12.705Z,5.20
2022-11-15T07:18:42.920Z,5.14
2022-11-15T07:21:13.732Z,5.45
2022-11-15T07:23:43.194Z,5.39
2022-11-15T07:26:12.614Z,5.53
2022-11-15T07:28:42.246Z,5.60
2022-11-15T07:31:12.779Z,5.49
2022-11-15T07:33:42.256Z,5.22
2022-11-15T07:36:11.689Z,5.14
2022-11-15T07:38:42.996Z,5.42
2022-11-15T07:41:12.688Z,5.38
2022-11-15T07:43:41.358Z,5.58
2022-11-15T07:46:11.029Z,5.60
2022-11-15T07:48:45.317Z,5.76
2022-11-15T07:51:17.922Z,5.81
2022-11-15T07:53:47.389Z,5.70
2022-11-15T07:56:17.262Z,5.79
2022-11-15T07:58:48.253Z,6.18
2022-11-15T08:01:17.858Z,6.02
2022-11-15T08:03:46.678Z,5.83
2022-11-15T08:06:15.341Z,5.87
2022-11-15T08:08:44.787Z,5.99
2022-11-15T08:11:13.389Z,6.14
2022-11-15T08:13:42.831Z,5.89
2022-11-15T08:16:13.134Z,5.90
2022-11-15T08:18:42.703Z,5.98
2022-11-15T08:21:21.490Z,6.20
2022-11-15T08:23:50.955Z,6.09
2022-11-15T08:26:20.468Z,6.10
2022-11-15T08:28:49.985Z,6.11
2022-11-15T08:31:20.639Z,6.14
2022-11-15T08:33:50.235Z,6.33
2022-11-15T08:36:20.128Z,6.57
2022-11-15T08:38:48.882Z,6.21
2022-11-15T08:41:39.164Z,6.54
2022-11-15T08:44:08.651Z,6.27
2022-11-15T08:46:38.192Z,6.42
2022-11-15T08:49:06.898Z,6.74
2022-11-15T08:51:36.360Z,6.55
2022-11-15T08:54:06.033Z,6.32
2022-11-15T08:56:35.574Z,6.30
2022-11-15T08:59:05.093Z,6.40
2022-11-15T09:01:34.719Z,6.10
2022-11-15T09:04:05.188Z,5.93
2022-11-15T09:06:34.624Z,6.19
2022-11-15T09:09:03.996Z,6.19
2022-11-15T09:11:33.620Z,6.34
2022-11-15T09:14:03.385Z,6.40
2022-11-15T09:16:33.452Z,6.34
2022-11-15T09:19:10.482Z,6.54
2022-11-15T09:21:41.469Z,6.49
2022-11-15T09:24:12.824Z,6.74
2022-11-15T09:26:44.596Z,6.74
2022-11-15T09:29:14.146Z,6.48
2022-11-15T09:31:42.007Z,6.35
2022-11-15T09:34:10.995Z,6.59
2022-11-15T09:36:41.481Z,6.78
2022-11-15T09:39:09.390Z,6.89
2022-11-15T09:42:03.878Z,6.90
2022-11-15T09:44:50.107Z,6.51
2022-11-15T09:47:45.147Z,6.81
2022-11-15T09:50:30.279Z,6.85
2022-11-15T09:53:00.122Z,6.79
2022-11-15T09:56:06.972Z,6.61
2022-11-15T09:59:29.187Z,6.55
2022-11-15T10:02:10.757Z,6.73
2022-11-15T10:04:41.617Z,6.65
2022-11-15T10:07:28.872Z,6.43
2022-11-15T10:10:33.628Z,6.42
2022-11-15T10:13:03.681Z,6.59
2022-11-15T10:15:33.391Z,6.66
2022-11-15T10:18:50.786Z,6.39
2022-11-15T10:21:35.724Z,6.87
2022-11-15T10:24:14.190Z,6.56
2022-11-15T10:26:50.520Z,6.58
2022-11-15T10:29:26.693Z,6.86
2022-11-15T10:31:56.713Z,6.84
2022-11-15T10:34:28.065Z,6.75
2022-11-15T10:37:04.634Z,6.88
2022-11-15T10:39:37.295Z,6.79
2022-11-15T10:42:29.737Z,6.68
2022-11-15T10:44:59.306Z,6.86
2022-11-15T10:47:38.985Z,6.94
2022-11-15T10:50:33.558Z,6.65
2022-11-15T10:53:04.039Z,6.75
2022-11-15T10:55:35.768Z,6.87
2022-11-15T10:58:36.843Z,6.92
2022-11-15T11:01:19.505Z,7.23
2022-11-15T11:04:10.140Z,6.85
2022-11-15T11:07:01.224Z,6.92
2022-11-15T11:09:33.574Z,7.16
2022-11-15T11:12:06.864Z,7.10
2022-11-15T11:14:40.109Z,7.28
2022-11-15T11:17:55.536Z,7.07
2022-11-15T11:20:52.532Z,7.29
2022-11-15T11:23:34.355Z,7.14
2022-11-15T11:26:26.036Z,7.04
2022-11-15T11:29:49.904Z,6.75
2022-11-15T11:33:12.278Z,7.06
2022-11-15T11:36:44.721Z,6.67
2022-11-15T11:39:42.921Z,6.72
2022-11-15T11:42:43.882Z,7.06
2022-11-15T11:45:22.277Z,6.95
2022-11-15T11:48:31.702Z,6.87
2022-11-15T11:51:29.854Z,7.07
2022-11-15T11:54:15.040Z,7.04
2022-11-15T11:56:47.005Z,6.96
2022-11-15T11:59:51.994Z,7.15
2022-11-15T12:02:42.798Z,7.24
2022-11-15T12:05:30.323Z,7.28
2022-11-15T12:08:29.707Z,7.45
2022-11-15T12:12:05.512Z,7.38
2022-11-15T12:14:45.450Z,7.32
2022-11-15T12:17:19.254Z,7.31
2022-11-15T12:19:49.033Z,7.29
2022-11-15T12:22:32.306Z,7.40
2022-11-15T12:25:21.063Z,7.36
2022-11-15T12:28:08.914Z,7.37
2022-11-15T12:31:03.330Z,7.20
2022-11-15T12:33:47.889Z,7.07
2022-11-15T12:36:23.347Z,7.11
2022-11-15T12:39:44.216Z,7.25
2022-11-15T12:42:13.623Z,7.12
2022-11-15T12:44:42.945Z,7.30
2022-11-15T12:47:11.476Z,7.31
2022-11-15T12:49:40.897Z,7.47
2022-11-15T12:52:11.848Z,7.41
2022-11-15T12:54:44.179Z,7.28
2022-11-15T12:57:16.451Z,7.31
2022-11-15T13:00:04.326Z,7.24
2022-11-15T13:02:46.505Z,7.08
2022-11-15T13:05:19.434Z,7.28
2022-11-15T13:07:48.830Z,7.12
2022-11-15T13:10:28.184Z,7.26
2022-11-15T13:13:04.902Z,7.23
2022-11-15T13:16:01.051Z,7.23
2022-11-15T13:18:41.512Z,7.24
2022-11-15T13:21:44.337Z,7.07
2022-11-15T13:24:17.983Z,7.16
2022-11-15T13:26:47.601Z,7.21
2022-11-15T13:29:20.222Z,7.38
2022-11-15T13:31:50.552Z,7.51
2022-11-15T13:37:23.596Z,7.34
2022-11-15T13:39:53.057Z,7.50
2022-11-15T13:42:23.159Z,7.23
2022-11-15T13:45:06.902Z,7.32
2022-11-15T13:47:35.578Z,7.43
2022-11-15T13:50:11.240Z,7.30
2022-11-15T13:52:45.603Z,7.43
2022-11-15T13:55:21.757Z,7.44
2022-11-15T13:58:00.555Z,7.57
2022-11-15T14:00:44.506Z,7.42
2022-11-15T14:03:27.123Z,7.53
2022-11-15T14:06:15.972Z,7.43
2022-11-15T14:09:34.558Z,7.43
2022-11-15T14:12:35.389Z,7.49
2022-11-15T14:15:37.583Z,7.26
2022-11-15T14:18:44.900Z,7.55
2022-11-15T14:21:15.188Z,7.22
2022-11-15T14:23:44.951Z,7.30
2022-11-15T14:26:35.796Z,7.34
2022-11-15T14:29:43.890Z,7.21
2022-11-15T14:32:26.943Z,7.31
2022-11-15T14:35:05.250Z,7.31
2022-11-15T14:37:36.054Z,7.31
2022-11-15T14:40:10.664Z,7.51
2022-11-15T14:42:40.239Z,7.38
2022-11-15T14:45:22.876Z,7.50
2022-11-15T14:47:55.082Z,7.50
2022-11-15T14:50:24.595Z,7.24
2022-11-15T14:52:54.139Z,7.19
2022-11-15T14:55:30.134Z,7.33
2022-11-15T14:58:00.823Z,7.23
2022-11-15T15:00:35.324Z,7.25
2022-11-15T15:03:06.928Z,7.28
2022-11-15T15:05:45.590Z,7.40
2022-11-15T15:08:15.232Z,7.26
2022-11-15T15:10:47.199Z,7.29
2022-11-15T15:13:25.634Z,7.39
2022-11-15T15:15:55.208Z,7.49
2022-11-15T15:18:24.670Z,7.31
2022-11-15T15:21:01.211Z,7.48
2022-11-15T15:23:32.166Z,7.48
2022-11-15T15:26:01.635Z,7.50
2022-11-15T15:28:34.727Z,7.45
2022-11-15T15:31:07.008Z,7.49
2022-11-15T15:33:34.863Z,7.40
2022-11-15T15:36:05.192Z,7.39
2022-11-15T15:38:35.218Z,7.34
2022-11-15T15:41:05.242Z,7.40
2022-11-15T15:43:33.024Z,7.51
2022-11-15T15:46:01.242Z,7.40
2022-11-15T15:48:32.065Z,7.45
2022-11-15T15:51:00.312Z,7.42
2022-11-15T15:53:30.134Z,7.41
2022-11-15T15:55:59.913Z,7.55
2022-11-15T15:58:31.119Z,7.49
2022-11-15T16:00:59.315Z,7.58
2022-11-15T16:03:28.882Z,7.56
2022-11-15T16:05:56.783Z,7.69
2022-11-15T16:08:42.532Z,7.70
2022-11-15T16:11:17.457Z,7.48
2022-11-15T16:13:47.130Z,7.45
2022-11-15T16:16:22.537Z,7.68
2022-11-15T16:18:50.290Z,7.55
2022-11-15T16:21:19.936Z,7.50
2022-11-15T16:23:54.306Z,7.53
2022-11-15T16:26:30.514Z,7.53
2022-11-15T16:28:58.783Z,7.56
2022-11-15T16:31:28.399Z,7.64
2022-11-15T16:34:00.139Z,7.66
2022-11-15T16:36:35.009Z,7.48
2022-11-15T16:39:05.258Z,7.65
2022-11-15T16:41:34.867Z,7.67
2022-11-15T16:44:02.658Z,7.58
2022-11-15T16:46:32.229Z,7.75
2022-11-15T16:49:01.731Z,7.80
2022-11-15T16:51:29.502Z,7.86
2022-11-15T16:53:59.866Z,7.83
2022-11-15T16:56:32.062Z,7.77
2022-11-15T16:59:02.639Z,7.69
2022-11-15T17:01:46.727Z,7.58
2022-11-15T17:04:19.918Z,7.66
2022-11-15T17:06:50.241Z,7.70
2022-11-15T17:09:26.143Z,7.87
2022-11-15T17:11:55.653Z,7.91
2022-11-15T17:14:26.023Z,7.90
2022-11-15T17:16:56.359Z,7.85
2022-11-15T17:19:25.875Z,7.77
2022-11-15T17:21:55.401Z,7.77
2022-11-15T17:24:23.222Z,7.82
2022-11-15T17:26:52.760Z,7.70
2022-11-15T17:29:22.347Z,7.77
2022-11-15T17:31:50.075Z,7.69
2022-11-15T17:34:19.198Z,7.69
2022-11-15T17:36:50.036Z,7.74
2022-11-15T17:39:19.732Z,7.81
2022-11-15T17:41:49.266Z,7.83
2022-11-15T17:44:18.785Z,7.79
2022-11-15T17:46:48.279Z,7.75
2022-11-15T17:49:17.787Z,7.64
2022-11-15T17:51:50.183Z,7.62
2022-11-15T17:54:19.992Z,7.74
2022-11-15T17:56:49.619Z,7.74
2022-11-15T17:59:21.588Z,7.47
2022-11-15T18:01:51.461Z,7.55
2022-11-15T18:04:21.224Z,7.58
2022-11-15T18:06:50.830Z,7.75
2022-11-15T18:09:21.974Z,7.75
2022-11-15T18:11:51.856Z,7.65
2022-11-15T18:14:21.495Z,7.76
2022-11-15T18:16:51.031Z,7.68
2022-11-15T18:19:20.678Z,7.46
2022-11-15T18:21:56.428Z,7.56
2022-11-15T18:24:35.249Z,7.47
2022-11-15T18:27:06.657Z,7.53
2022-11-15T18:29:38.070Z,7.55
2022-11-15T18:32:12.618Z,7.77
2022-11-15T18:34:42.238Z,7.71
2022-11-15T18:37:11.899Z,7.75
2022-11-15T18:39:44.033Z,7.63
2022-11-15T18:42:13.584Z,7.52
2022-11-15T18:44:43.146Z,7.62
2022-11-15T18:47:10.885Z,7.59
2022-11-15T18:49:40.441Z,7.67
2022-11-15T18:52:09.960Z,7.75
2022-11-15T18:54:39.507Z,7.76
2022-11-15T18:57:09.056Z,7.73
2022-11-15T18:59:38.654Z,7.68
2022-11-15T19:02:13.840Z,7.73
2022-11-15T19:04:43.356Z,7.67
2022-11-15T19:07:11.294Z,7.69
2022-11-15T19:09:41.674Z,7.59
2022-11-15T19:12:12.616Z,7.55
2022-11-15T19:14:42.247Z,7.75
2022-11-15T19:17:11.686Z,7.61
2022-11-15T19:19:39.404Z,7.57
2022-11-15T19:22:08.869Z,7.66
2022-11-15T19:24:38.367Z,7.80
2022-11-15T19:27:06.063Z,7.78
2022-11-15T19:29:34.723Z,7.83
2022-11-15T19:32:05.412Z,7.77
2022-11-15T19:34:34.877Z,7.64
2022-11-15T19:37:05.457Z,7.67
2022-11-15T19:39:39.776Z,7.67
2022-11-15T19:42:12.078Z,7.74
2022-11-15T19:44:41.645Z,7.71
2022-11-15T19:47:11.356Z,7.73
2022-11-15T19:49:40.919Z,7.66
2022-11-15T19:52:10.488Z,7.63
2022-11-15T19:54:39.958Z,7.67
2022-11-15T19:57:09.413Z,7.72
2022-11-15T19:59:38.844Z,7.63
2022-11-15T20:02:06.867Z,7.66
2022-11-15T20:04:36.424Z,7.58
2022-11-15T20:07:05.923Z,7.56
2022-11-15T20:09:35.392Z,7.65
2022-11-15T20:12:05.253Z,7.61
2022-11-15T20:14:34.730Z,7.80
2022-11-15T20:17:04.200Z,7.70
2022-11-15T20:19:33.859Z,7.64
2022-11-15T20:22:01.577Z,7.70
2022-11-15T20:24:31.491Z,7.61
2022-11-15T20:27:00.934Z,7.65
2022-11-15T20:29:30.367Z,7.75
2022-11-15T20:31:59.859Z,7.87
2022-11-15T20:34:29.439Z,7.85
2022-11-15T20:36:58.924Z,7.72
2022-11-15T20:39:28.418Z,7.69
2022-11-15T20:41:57.866Z,7.73
2022-11-15T20:44:27.393Z,7.80
2022-11-15T20:46:57.136Z,7.56
2022-11-15T20:49:24.872Z,7.64
2022-11-15T20:51:53.023Z,7.53
2022-11-15T20:54:22.605Z,7.54
2022-11-15T20:56:52.167Z,7.55
2022-11-15T20:59:21.569Z,7.69
2022-11-15T21:01:51.118Z,7.69
2022-11-15T21:04:18.983Z,7.71
2022-11-15T21:06:49.589Z,7.62
2022-11-15T21:09:36.480Z,7.62
2022-11-15T21:12:12.438Z,7.61
2022-11-15T21:14:44.266Z,7.63
2022-11-15T21:17:13.990Z,7.69
2022-11-15T21:19:44.634Z,7.66
2022-11-15T21:22:15.680Z,7.50
2022-11-15T21:24:45.290Z,7.61
2022-11-15T21:27:15.548Z,7.63
2022-11-15T21:29:48.707Z,7.69
2022-11-15T21:32:18.428Z,7.68
2022-11-15T21:34:48.018Z,7.53
2022-11-15T21:37:17.648Z,7.57
2022-11-15T21:39:47.191Z,7.58
2022-11-15T21:42:16.667Z,7.54
2022-11-15T21:44:46.308Z,7.66
2022-11-15T21:47:16.474Z,7.69
2022-11-15T21:49:46.053Z,7.49
2022-11-15T21:52:15.560Z,7.49
2022-11-15T21:54:45.019Z,7.75
2022-11-15T21:57:14.622Z,7.74
2022-11-15T22:00:02.297Z,7.55
2022-11-15T22:02:32.060Z,7.73
2022-11-15T22:05:01.561Z,7.66
2022-11-15T22:07:31.146Z,7.76
2022-11-15T22:10:00.601Z,7.67
2022-11-15T22:12:30.052Z,7.59
2022-11-15T22:14:59.511Z,7.54
2022-11-15T22:17:49.154Z,7.53
2022-11-15T22:23:09.290Z,7.43
2022-11-15T22:25:38.933Z,7.60
2022-11-15T22:28:08.630Z,7.56
2022-11-15T22:30:41.176Z,7.50
2022-11-15T22:33:09.181Z,7.60
2022-11-15T22:35:38.172Z,7.60
2022-11-15T22:38:08.799Z,7.59
2022-11-15T22:40:37.974Z,7.58
2022-11-15T22:43:08.394Z,7.52
2022-11-15T22:45:38.086Z,7.47
2022-11-15T22:48:06.830Z,7.59
2022-11-15T22:50:34.707Z,7.51
2022-11-15T22:53:04.331Z,7.73
2022-11-15T22:55:34.031Z,7.67
2022-11-15T22:58:03.677Z,7.49
2022-11-15T23:00:33.392Z,7.65
2022-11-15T23:03:03.551Z,7.57
2022-11-15T23:05:33.168Z,7.50
2022-11-15T23:08:02.888Z,7.54
2022-11-15T23:10:51.218Z,7.59
2022-11-15T23:13:20.843Z,7.68
2022-11-15T23:16:10.645Z,7.66
2022-11-15T23:18:42.373Z,7.61
2022-11-15T23:21:54.760Z,7.43
2022-11-15T23:24:25.319Z,7.32
2022-11-15T23:26:58.326Z,7.37
2022-11-15T23:29:29.472Z,7.51
2022-11-15T23:32:16.824Z,7.57
2022-11-15T23:34:47.126Z,7.50
2022-11-15T23:37:16.525Z,7.65
2022-11-15T23:39:46.117Z,7.69
2022-11-15T23:42:20.110Z,7.67
2022-11-15T23:44:51.110Z,7.49
2022-11-15T23:47:22.051Z,7.59
2022-11-15T23:49:52.490Z,7.44
2022-11-15T23:52:23.354Z,7.49
2022-11-15T23:54:51.250Z,7.61
2022-11-15T23:57:21.125Z,7.52
2022-11-15T23:59:50.811Z,7.45
